createdAt,value
2018-04-13T00:00:36.859Z,13.67
2018-04-13T00:01:36.844Z,13.68
2018-04-13T00:02:36.823Z,13.64
2018-04-13T00:03:36.806Z,13.67
2018-04-13T00:04:36.787Z,13.71
2018-04-13T00:05:36.771Z,13.78
2018-04-13T00:06:36.750Z,13.75
2018-04-13T00:07:36.731Z,13.67
2018-04-13T00:08:36.713Z,13.57
2018-04-13T00:09:36.701Z,13.80
2018-04-13T00:10:36.678Z,13.67
2018-04-13T00:11:36.656Z,13.67
2018-04-13T00:12:36.640Z,13.67
2018-04-13T00:13:36.625Z,13.67
2018-04-13T00:14:36.610Z,13.73
2018-04-13T00:15:36.584Z,13.68
2018-04-13T00:16:36.568Z,13.65
2018-04-13T00:17:36.552Z,13.68
2018-04-13T00:18:36.528Z,13.67
2018-04-13T00:19:36.511Z,13.75
2018-04-13T00:20:36.492Z,13.71
2018-04-13T00:21:36.523Z,13.73
2018-04-13T00:22:36.459Z,13.76
2018-04-13T00:23:36.443Z,13.70
2018-04-13T00:24:36.421Z,13.73
2018-04-13T00:25:36.403Z,13.71
2018-04-13T00:26:36.385Z,13.60
2018-04-13T00:27:36.366Z,13.64
2018-04-13T00:28:36.347Z,13.64
2018-04-13T00:29:36.328Z,13.67
2018-04-13T00:30:36.309Z,13.68
2018-04-13T00:31:36.294Z,13.67
2018-04-13T00:32:36.276Z,13.65
2018-04-13T00:33:36.256Z,13.61
2018-04-13T00:34:36.241Z,13.55
2018-04-13T00:35:36.218Z,13.65
2018-04-13T00:36:36.199Z,13.60
2018-04-13T00:37:36.182Z,13.54
2018-04-13T00:38:36.167Z,13.58
2018-04-13T00:39:36.145Z,13.52
2018-04-13T00:40:36.127Z,13.60
2018-04-13T00:41:36.109Z,13.62
2018-04-13T00:42:36.091Z,13.60
2018-04-13T00:43:36.073Z,13.57
2018-04-13T00:44:36.053Z,13.52
2018-04-13T00:45:36.036Z,13.61
2018-04-13T00:46:36.017Z,13.61
2018-04-13T00:47:35.999Z,13.60
2018-04-13T00:48:35.989Z,13.61
2018-04-13T00:49:35.971Z,13.58
2018-04-13T00:50:35.966Z,13.61
2018-04-13T00:51:35.929Z,13.62
2018-04-13T00:52:35.906Z,13.60
2018-04-13T00:53:35.888Z,13.65
2018-04-13T00:54:35.871Z,13.62
2018-04-13T00:55:35.850Z,13.64
2018-04-13T00:56:35.832Z,13.58
2018-04-13T00:57:35.814Z,13.65
2018-04-13T00:58:35.798Z,13.62
2018-04-13T00:59:35.778Z,13.61
2018-04-13T01:00:35.759Z,13.68
2018-04-13T01:01:35.795Z,13.64
2018-04-13T01:02:35.723Z,13.71
2018-04-13T01:03:35.704Z,13.67
2018-04-13T01:04:35.686Z,13.68
2018-04-13T01:05:35.717Z,13.62
2018-04-13T01:06:35.649Z,13.61
2018-04-13T01:07:35.684Z,13.64
2018-04-13T01:08:35.612Z,13.68
2018-04-13T01:09:35.594Z,13.58
2018-04-13T01:10:35.576Z,13.62
2018-04-13T01:11:35.567Z,13.57
2018-04-13T01:12:35.552Z,13.58
2018-04-13T01:13:35.556Z,13.54
2018-04-13T01:14:35.504Z,13.55
2018-04-13T01:15:35.482Z,13.45
2018-04-13T01:16:36.044Z,13.45
2018-04-13T01:17:36.013Z,13.47
2018-04-13T01:18:35.433Z,13.33
2018-04-13T01:19:35.481Z,13.33
2018-04-13T01:20:35.396Z,13.33
2018-04-13T01:21:35.391Z,13.40
2018-04-13T01:22:35.355Z,13.33
2018-04-13T01:23:35.337Z,13.36
2018-04-13T01:24:35.345Z,13.37
2018-04-13T01:25:35.306Z,13.40
2018-04-13T01:26:35.338Z,13.33
2018-04-13T01:27:35.297Z,13.40
2018-04-13T01:28:35.256Z,13.40
2018-04-13T01:29:36.055Z,13.33
2018-04-13T01:30:35.222Z,13.33
2018-04-13T01:31:35.189Z,13.39
2018-04-13T01:32:35.169Z,13.31
2018-04-13T01:33:35.182Z,13.31
2018-04-13T01:34:35.144Z,13.31
2018-04-13T01:35:35.116Z,13.37
2018-04-13T01:36:35.095Z,13.31
2018-04-13T01:37:35.136Z,13.31
2018-04-13T01:38:35.108Z,13.40
2018-04-13T01:39:35.041Z,13.33
2018-04-13T01:40:35.022Z,13.33
2018-04-13T01:41:35.003Z,13.36
2018-04-13T01:42:35.039Z,13.39
2018-04-13T01:43:34.966Z,13.37
2018-04-13T01:44:34.947Z,13.37
2018-04-13T01:45:34.984Z,13.37
2018-04-13T01:46:35.512Z,13.36
2018-04-13T01:47:35.506Z,13.40
2018-04-13T01:48:34.873Z,13.31
2018-04-13T01:49:34.854Z,13.27
2018-04-13T01:50:35.558Z,13.30
2018-04-13T01:51:34.816Z,13.33
2018-04-13T01:52:34.799Z,13.23
2018-04-13T01:53:34.780Z,13.24
2018-04-13T01:54:34.763Z,13.19
2018-04-13T01:55:34.786Z,13.13
2018-04-13T01:56:34.724Z,13.13
2018-04-13T01:57:34.759Z,13.13
2018-04-13T01:58:34.694Z,13.05
2018-04-13T01:59:34.669Z,13.06
2018-04-13T02:00:34.650Z,13.05
2018-04-13T02:01:34.643Z,13.03
2018-04-13T02:02:34.613Z,13.02
2018-04-13T02:03:34.646Z,13.01
2018-04-13T02:04:34.590Z,12.99
2018-04-13T02:05:34.556Z,13.03
2018-04-13T02:06:34.538Z,12.88
2018-04-13T02:07:34.519Z,12.90
2018-04-13T02:08:34.503Z,12.95
2018-04-13T02:09:34.481Z,12.91
2018-04-13T02:10:34.463Z,12.93
2018-04-13T02:11:34.444Z,12.90
2018-04-13T02:12:34.467Z,12.93
2018-04-13T02:13:34.409Z,12.88
2018-04-13T02:14:34.389Z,12.88
2018-04-13T02:15:34.389Z,12.81
2018-04-13T02:16:34.352Z,12.86
2018-04-13T02:17:34.335Z,12.76
2018-04-13T02:18:34.313Z,12.76
2018-04-13T02:19:34.340Z,12.73
2018-04-13T02:20:35.067Z,12.68
2018-04-13T02:21:34.257Z,12.73
2018-04-13T02:22:34.244Z,12.69
2018-04-13T02:23:34.219Z,12.78
2018-04-13T02:24:34.200Z,12.68
2018-04-13T02:25:34.186Z,12.72
2018-04-13T02:26:34.166Z,12.72
2018-04-13T02:27:34.193Z,12.66
2018-04-13T02:28:34.125Z,12.63
2018-04-13T02:29:34.105Z,12.68
2018-04-13T02:30:34.089Z,12.66
2018-04-13T02:31:34.067Z,12.69
2018-04-13T02:32:34.049Z,12.66
2018-04-13T02:33:34.031Z,12.66
2018-04-13T02:34:34.107Z,12.65
2018-04-13T02:35:33.991Z,12.69
2018-04-13T02:36:33.973Z,12.68
2018-04-13T02:37:33.955Z,12.63
2018-04-13T02:38:33.941Z,12.58
2018-04-13T02:39:33.927Z,12.51
2018-04-13T02:40:33.898Z,12.54
2018-04-13T02:41:33.880Z,12.62
2018-04-13T02:42:33.860Z,12.55
2018-04-13T02:43:33.850Z,12.54
2018-04-13T02:44:33.823Z,12.55
2018-04-13T02:45:33.803Z,12.61
2018-04-13T02:46:33.784Z,12.51
2018-04-13T02:47:33.766Z,12.45
2018-04-13T02:48:33.747Z,12.58
2018-04-13T02:49:33.729Z,12.58
2018-04-13T02:50:33.714Z,12.50
2018-04-13T02:51:33.690Z,12.51
2018-04-13T02:52:33.681Z,12.57
2018-04-13T02:53:33.651Z,12.55
2018-04-13T02:54:33.634Z,12.53
2018-04-13T02:55:33.612Z,12.40
2018-04-13T02:56:33.639Z,12.37
2018-04-13T02:57:33.576Z,12.45
2018-04-13T02:58:33.555Z,12.36
2018-04-13T02:59:33.540Z,12.33
2018-04-13T03:00:33.518Z,12.26
2018-04-13T03:01:33.498Z,12.15
2018-04-13T03:02:33.480Z,12.14
2018-04-13T03:03:33.460Z,12.17
2018-04-13T03:04:33.439Z,12.17
2018-04-13T03:05:33.422Z,12.14
2018-04-13T03:06:33.402Z,12.10
2018-04-13T03:07:33.425Z,12.11
2018-04-13T03:08:33.363Z,12.08
2018-04-13T03:09:33.344Z,12.07
2018-04-13T03:10:33.332Z,12.08
2018-04-13T03:11:33.307Z,12.10
2018-04-13T03:12:33.286Z,12.10
2018-04-13T03:13:33.271Z,12.11
2018-04-13T03:14:33.250Z,12.11
2018-04-13T03:15:33.230Z,11.99
2018-04-13T03:16:33.211Z,12.05
2018-04-13T03:17:33.216Z,12.03
2018-04-13T03:18:33.241Z,11.97
2018-04-13T03:19:33.158Z,11.97
2018-04-13T03:20:33.134Z,11.97
2018-04-13T03:21:33.115Z,11.97
2018-04-13T03:22:33.096Z,11.88
2018-04-13T03:23:33.078Z,11.96
2018-04-13T03:24:33.057Z,12.02
2018-04-13T03:25:33.038Z,11.96
2018-04-13T03:26:33.018Z,11.99
2018-04-13T03:27:33.013Z,11.97
2018-04-13T03:28:33.082Z,11.96
2018-04-13T03:29:32.961Z,11.96
2018-04-13T03:30:32.942Z,11.89
2018-04-13T03:31:32.923Z,11.95
2018-04-13T03:32:32.903Z,11.96
2018-04-13T03:33:32.885Z,11.88
2018-04-13T03:34:32.865Z,11.88
2018-04-13T03:35:32.844Z,11.99
2018-04-13T03:36:32.824Z,11.95
2018-04-13T03:37:32.806Z,11.99
2018-04-13T03:38:32.790Z,11.97
2018-04-13T03:39:32.787Z,11.86
2018-04-13T03:40:32.751Z,11.86
2018-04-13T03:41:32.786Z,11.91
2018-04-13T03:42:32.712Z,12.00
2018-04-13T03:43:32.688Z,11.89
2018-04-13T03:44:32.670Z,11.95
2018-04-13T03:45:32.651Z,12.02
2018-04-13T03:46:32.665Z,11.96
2018-04-13T03:47:32.612Z,11.95
2018-04-13T03:48:32.592Z,12.05
2018-04-13T03:49:32.594Z,11.99
2018-04-13T03:50:32.553Z,11.96
2018-04-13T03:51:32.536Z,12.02
2018-04-13T03:52:32.516Z,11.89
2018-04-13T03:53:32.496Z,11.96
2018-04-13T03:54:32.508Z,11.96
2018-04-13T03:55:32.457Z,11.93
2018-04-13T03:56:32.439Z,11.99
2018-04-13T03:57:32.420Z,11.91
2018-04-13T03:58:32.404Z,11.97
2018-04-13T03:59:32.378Z,11.96
2018-04-13T04:00:32.365Z,11.97
2018-04-13T04:01:32.342Z,12.00
2018-04-13T04:02:32.321Z,12.00
2018-04-13T04:03:32.301Z,12.05
2018-04-13T04:04:32.283Z,12.02
2018-04-13T04:05:32.277Z,12.11
2018-04-13T04:06:32.305Z,11.96
2018-04-13T04:07:32.279Z,12.02
2018-04-13T04:08:32.265Z,12.03
2018-04-13T04:09:32.254Z,12.00
2018-04-13T04:10:32.183Z,12.07
2018-04-13T04:11:32.149Z,12.00
2018-04-13T04:12:32.130Z,11.91
2018-04-13T04:13:32.109Z,11.97
2018-04-13T04:14:32.121Z,11.99
2018-04-13T04:15:32.132Z,11.97
2018-04-13T04:16:32.137Z,11.91
2018-04-13T04:17:32.030Z,11.86
2018-04-13T04:18:32.072Z,11.81
2018-04-13T04:19:31.997Z,11.88
2018-04-13T04:20:31.979Z,11.85
2018-04-13T04:21:31.967Z,11.88
2018-04-13T04:22:32.621Z,11.80
2018-04-13T04:23:31.923Z,11.80
2018-04-13T04:24:31.895Z,11.85
2018-04-13T04:25:31.884Z,11.91
2018-04-13T04:26:31.855Z,11.88
2018-04-13T04:27:31.835Z,11.88
2018-04-13T04:28:31.815Z,11.74
2018-04-13T04:29:31.858Z,11.81
2018-04-13T04:30:31.778Z,11.76
2018-04-13T04:31:31.799Z,11.73
2018-04-13T04:32:31.787Z,11.80
2018-04-13T04:33:31.761Z,11.71
2018-04-13T04:34:31.789Z,11.77
2018-04-13T04:35:31.771Z,11.78
2018-04-13T04:36:31.709Z,11.77
2018-04-13T04:37:31.668Z,11.78
2018-04-13T04:38:31.632Z,11.65
2018-04-13T04:39:31.639Z,11.67
2018-04-13T04:40:31.639Z,11.68
2018-04-13T04:41:31.565Z,11.63
2018-04-13T04:42:31.560Z,11.65
2018-04-13T04:43:31.527Z,11.65
2018-04-13T04:44:31.506Z,11.63
2018-04-13T04:45:31.485Z,11.62
2018-04-13T04:46:31.468Z,11.70
2018-04-13T04:47:31.446Z,11.71
2018-04-13T04:48:31.427Z,11.62
2018-04-13T04:49:31.405Z,11.58
2018-04-13T04:50:31.385Z,11.67
2018-04-13T04:51:31.367Z,11.59
2018-04-13T04:52:31.387Z,11.59
2018-04-13T04:53:31.329Z,11.58
2018-04-13T04:54:31.319Z,11.59
2018-04-13T04:55:31.290Z,11.58
2018-04-13T04:56:31.269Z,11.56
2018-04-13T04:57:31.251Z,11.58
2018-04-13T04:58:31.232Z,11.56
2018-04-13T04:59:31.210Z,11.60
2018-04-13T05:00:31.191Z,11.58
2018-04-13T05:01:31.172Z,11.58
2018-04-13T05:02:31.151Z,11.58
2018-04-13T05:03:31.132Z,11.59
2018-04-13T05:04:31.125Z,11.68
2018-04-13T05:05:31.115Z,11.70
2018-04-13T05:06:31.138Z,11.80
2018-04-13T05:07:31.054Z,11.73
2018-04-13T05:08:31.069Z,11.74
2018-04-13T05:09:31.026Z,11.76
2018-04-13T05:10:31.003Z,11.76
2018-04-13T05:11:30.975Z,11.85
2018-04-13T05:12:30.956Z,11.86
2018-04-13T05:13:30.937Z,11.91
2018-04-13T05:14:30.919Z,11.93
2018-04-13T05:15:30.898Z,11.99
2018-04-13T05:16:30.878Z,11.80
2018-04-13T05:17:30.866Z,11.96
2018-04-13T05:18:30.841Z,11.95
2018-04-13T05:19:30.837Z,11.93
2018-04-13T05:20:30.800Z,11.96
2018-04-13T05:21:30.783Z,12.03
2018-04-13T05:22:30.764Z,12.05
2018-04-13T05:23:30.745Z,12.17
2018-04-13T05:24:30.732Z,12.14
2018-04-13T05:25:30.704Z,12.17
2018-04-13T05:26:30.683Z,12.26
2018-04-13T05:27:30.666Z,12.23
2018-04-13T05:28:30.646Z,12.18
2018-04-13T05:29:30.630Z,12.17
2018-04-13T05:30:30.607Z,12.17
2018-04-13T05:31:30.586Z,12.20
2018-04-13T05:32:30.566Z,12.14
2018-04-13T05:33:30.549Z,12.28
2018-04-13T05:34:30.531Z,12.20
2018-04-13T05:35:30.511Z,12.26
2018-04-13T05:36:30.489Z,12.29
2018-04-13T05:37:30.472Z,12.32
2018-04-13T05:38:30.451Z,12.29
2018-04-13T05:39:30.432Z,12.23
2018-04-13T05:40:30.412Z,12.28
2018-04-13T05:41:30.412Z,12.29
2018-04-13T05:42:30.404Z,12.45
2018-04-13T05:43:30.355Z,12.39
2018-04-13T05:44:30.337Z,12.44
2018-04-13T05:45:30.317Z,12.39
2018-04-13T05:46:30.298Z,12.44
2018-04-13T05:47:30.278Z,12.40
2018-04-13T05:48:30.265Z,12.43
2018-04-13T05:49:30.241Z,12.51
2018-04-13T05:50:30.228Z,12.39
2018-04-13T05:51:30.201Z,12.40
2018-04-13T05:52:30.181Z,12.50
2018-04-13T05:53:30.166Z,12.47
2018-04-13T05:54:30.144Z,12.45
2018-04-13T05:55:30.124Z,12.54
2018-04-13T05:56:30.105Z,12.53
2018-04-13T05:57:30.087Z,12.54
2018-04-13T05:58:30.068Z,12.44
2018-04-13T05:59:30.047Z,12.50
2018-04-13T06:00:30.030Z,12.44
2018-04-13T06:01:30.011Z,12.54
2018-04-13T06:02:29.990Z,12.51
2018-04-13T06:03:29.970Z,12.53
2018-04-13T06:04:29.952Z,12.50
2018-04-13T06:05:29.932Z,12.51
2018-04-13T06:06:29.922Z,12.61
2018-04-13T06:07:29.895Z,12.58
2018-04-13T06:08:29.886Z,12.55
2018-04-13T06:09:29.855Z,12.50
2018-04-13T06:10:29.841Z,12.55
2018-04-13T06:11:29.818Z,12.51
2018-04-13T06:12:29.801Z,12.55
2018-04-13T06:13:29.796Z,12.54
2018-04-13T06:14:29.759Z,12.50
2018-04-13T06:15:29.751Z,12.57
2018-04-13T06:16:29.723Z,12.61
2018-04-13T06:17:29.708Z,12.61
2018-04-13T06:18:29.686Z,12.69
2018-04-13T06:19:29.665Z,12.75
2018-04-13T06:20:29.647Z,12.81
2018-04-13T06:21:29.626Z,12.84
2018-04-13T06:22:29.607Z,12.90
2018-04-13T06:23:29.589Z,12.93
2018-04-13T06:24:29.600Z,12.91
2018-04-13T06:25:29.554Z,13.01
2018-04-13T06:26:29.545Z,12.99
2018-04-13T06:27:29.511Z,13.08
2018-04-13T06:28:29.494Z,13.03
2018-04-13T06:29:29.481Z,13.03
2018-04-13T06:30:29.456Z,13.03
2018-04-13T06:31:29.435Z,13.17
2018-04-13T06:32:29.420Z,13.16
2018-04-13T06:33:29.404Z,13.19
2018-04-13T06:34:29.381Z,13.17
2018-04-13T06:35:29.391Z,13.16
2018-04-13T06:36:29.346Z,13.12
2018-04-13T06:37:29.324Z,13.24
2018-04-13T06:38:29.307Z,13.20
2018-04-13T06:39:29.287Z,13.17
2018-04-13T06:40:29.270Z,13.26
2018-04-13T06:41:29.250Z,13.33
2018-04-13T06:42:29.231Z,13.36
2018-04-13T06:43:29.212Z,13.36
2018-04-13T06:44:29.194Z,13.40
2018-04-13T06:45:29.211Z,13.45
2018-04-13T06:46:29.156Z,13.47
2018-04-13T06:47:29.141Z,13.36
2018-04-13T06:48:29.121Z,13.42
2018-04-13T06:49:29.101Z,13.40
2018-04-13T06:50:29.082Z,13.52
2018-04-13T06:51:29.062Z,13.57
2018-04-13T06:52:29.049Z,13.65
2018-04-13T06:53:29.026Z,13.60
2018-04-13T06:54:29.007Z,13.64
2018-04-13T06:55:28.994Z,13.71
2018-04-13T06:56:28.993Z,13.71
2018-04-13T06:57:28.953Z,13.83
2018-04-13T06:58:28.932Z,13.79
2018-04-13T06:59:28.914Z,13.86
2018-04-13T07:00:28.896Z,13.94
2018-04-13T07:01:28.881Z,13.97
2018-04-13T07:02:28.893Z,13.98
2018-04-13T07:03:28.842Z,13.98
2018-04-13T07:04:28.825Z,14.03
2018-04-13T07:05:28.807Z,14.13
2018-04-13T07:06:28.787Z,14.18
2018-04-13T07:07:28.768Z,14.20
2018-04-13T07:08:28.750Z,14.22
2018-04-13T07:09:28.734Z,14.25
2018-04-13T07:10:28.715Z,14.26
2018-04-13T07:11:28.695Z,14.38
2018-04-13T07:12:28.677Z,14.34
2018-04-13T07:13:28.659Z,14.34
2018-04-13T07:14:28.642Z,14.41
2018-04-13T07:15:28.624Z,14.41
2018-04-13T07:16:28.604Z,14.43
2018-04-13T07:17:28.587Z,14.55
2018-04-13T07:18:28.567Z,14.63
2018-04-13T07:19:28.548Z,14.73
2018-04-13T07:20:28.534Z,14.70
2018-04-13T07:21:28.514Z,14.78
2018-04-13T07:22:28.500Z,14.93
2018-04-13T07:23:28.477Z,14.94
2018-04-13T07:24:28.460Z,14.94
2018-04-13T07:25:28.442Z,14.99
2018-04-13T07:26:28.437Z,15.11
2018-04-13T07:27:28.443Z,15.08
2018-04-13T07:28:28.389Z,15.05
2018-04-13T07:29:28.376Z,15.11
2018-04-13T07:30:28.356Z,15.14
2018-04-13T07:31:28.336Z,15.14
2018-04-13T07:32:28.318Z,15.15
2018-04-13T07:33:28.304Z,15.14
2018-04-13T07:34:28.289Z,15.11
2018-04-13T07:35:28.265Z,15.19
2018-04-13T07:36:28.249Z,15.11
2018-04-13T07:37:28.229Z,15.17
2018-04-13T07:38:28.295Z,15.19
2018-04-13T07:39:28.195Z,15.19
2018-04-13T07:40:28.177Z,15.14
2018-04-13T07:41:28.160Z,15.15
2018-04-13T07:42:28.267Z,15.19
2018-04-13T07:43:28.123Z,15.12
2018-04-13T07:44:28.107Z,15.19
2018-04-13T07:45:28.090Z,15.17
2018-04-13T07:46:28.072Z,15.30
2018-04-13T07:47:28.056Z,15.23
2018-04-13T07:48:28.036Z,15.25
2018-04-13T07:49:28.023Z,15.22
2018-04-13T07:50:28.010Z,15.32
2018-04-13T07:51:27.985Z,15.27
2018-04-13T07:52:27.998Z,15.27
2018-04-13T07:53:27.951Z,15.30
2018-04-13T07:54:27.932Z,15.35
2018-04-13T07:55:27.914Z,15.33
2018-04-13T07:56:27.898Z,15.29
2018-04-13T07:57:27.880Z,15.33
2018-04-13T07:58:27.861Z,15.37
2018-04-13T07:59:27.849Z,15.33
2018-04-13T08:00:27.851Z,15.35
2018-04-13T08:01:27.847Z,15.39
2018-04-13T08:02:27.793Z,15.35
2018-04-13T08:03:27.775Z,15.41
2018-04-13T08:04:27.759Z,15.37
2018-04-13T08:05:27.740Z,15.43
2018-04-13T08:06:27.724Z,15.45
2018-04-13T08:07:27.705Z,15.44
2018-04-13T08:08:27.691Z,15.51
2018-04-13T08:09:27.670Z,15.50
2018-04-13T08:10:27.926Z,15.45
2018-04-13T08:11:27.638Z,15.43
2018-04-13T08:12:27.866Z,15.47
2018-04-13T08:13:27.603Z,15.50
2018-04-13T08:14:27.585Z,15.47
2018-04-13T08:15:27.566Z,15.57
2018-04-13T08:16:27.549Z,15.66
2018-04-13T08:17:27.531Z,15.63
2018-04-13T08:18:27.517Z,15.62
2018-04-13T08:19:27.497Z,15.65
2018-04-13T08:20:27.478Z,15.65
2018-04-13T08:21:27.463Z,15.73
2018-04-13T08:22:27.447Z,15.80
2018-04-13T08:23:27.428Z,15.76
2018-04-13T08:24:27.411Z,15.81
2018-04-13T08:25:27.396Z,15.88
2018-04-13T08:26:27.376Z,15.88
2018-04-13T08:27:27.359Z,15.90
2018-04-13T08:28:27.343Z,15.88
2018-04-13T08:29:27.324Z,15.87
2018-04-13T08:30:27.309Z,15.94
2018-04-13T08:31:27.291Z,16.02
2018-04-13T08:32:27.283Z,15.94
2018-04-13T08:33:27.258Z,16.00
2018-04-13T08:34:27.239Z,16.12
2018-04-13T08:35:27.276Z,16.16
2018-04-13T08:36:27.247Z,16.13
2018-04-13T08:37:27.188Z,16.17
2018-04-13T08:38:27.181Z,16.21
2018-04-13T08:39:27.175Z,16.21
2018-04-13T08:40:27.141Z,16.31
2018-04-13T08:41:27.121Z,16.36
2018-04-13T08:42:27.103Z,16.26
2018-04-13T08:43:27.183Z,16.32
2018-04-13T08:44:27.072Z,16.40
2018-04-13T08:45:27.133Z,16.40
2018-04-13T08:46:27.036Z,16.44
2018-04-13T08:47:27.019Z,16.43
2018-04-13T08:48:27.001Z,16.58
2018-04-13T08:49:26.987Z,16.47
2018-04-13T08:50:26.968Z,16.51
2018-04-13T08:51:26.989Z,16.64
2018-04-13T08:52:26.996Z,16.61
2018-04-13T08:53:26.919Z,16.68
2018-04-13T08:54:26.901Z,16.68
2018-04-13T08:55:26.953Z,16.80
2018-04-13T08:56:26.886Z,16.76
2018-04-13T08:57:26.852Z,16.76
2018-04-13T08:58:26.835Z,16.77
2018-04-13T08:59:26.834Z,16.80
2018-04-13T09:00:26.862Z,16.95
2018-04-13T09:01:26.815Z,16.86
2018-04-13T09:02:26.771Z,16.84
2018-04-13T09:03:26.752Z,16.89
2018-04-13T09:04:26.808Z,16.84
2018-04-13T09:05:26.720Z,16.92
2018-04-13T09:06:26.765Z,16.80
2018-04-13T09:07:26.685Z,16.79
2018-04-13T09:08:26.674Z,16.69
2018-04-13T09:09:26.655Z,16.79
2018-04-13T09:10:26.638Z,16.86
2018-04-13T09:11:26.621Z,16.84
2018-04-13T09:12:26.605Z,16.83
2018-04-13T09:13:26.586Z,16.87
2018-04-13T09:14:26.577Z,17.01
2018-04-13T09:15:26.553Z,16.99
2018-04-13T09:16:26.538Z,17.04
2018-04-13T09:17:26.523Z,16.87
2018-04-13T09:18:26.508Z,16.83
2018-04-13T09:19:26.508Z,16.86
2018-04-13T09:20:26.474Z,16.84
2018-04-13T09:21:26.457Z,16.89
2018-04-13T09:22:26.441Z,16.91
2018-04-13T09:23:26.425Z,16.79
2018-04-13T09:24:26.414Z,16.92
2018-04-13T09:25:26.396Z,16.86
2018-04-13T09:26:26.378Z,16.86
2018-04-13T09:27:26.361Z,17.02
2018-04-13T09:28:26.346Z,17.02
2018-04-13T09:29:26.329Z,17.07
2018-04-13T09:30:26.309Z,17.14
2018-04-13T09:31:26.293Z,17.19
2018-04-13T09:32:26.277Z,17.27
2018-04-13T09:33:26.262Z,17.32
2018-04-13T09:34:26.250Z,17.39
2018-04-13T09:35:26.240Z,17.47
2018-04-13T09:36:26.216Z,17.57
2018-04-13T09:37:26.201Z,17.57
2018-04-13T09:38:26.181Z,17.69
2018-04-13T09:39:26.164Z,17.72
2018-04-13T09:40:26.148Z,17.79
2018-04-13T09:41:26.139Z,17.73
2018-04-13T09:42:26.118Z,17.79
2018-04-13T09:43:26.100Z,17.80
2018-04-13T09:44:26.135Z,17.93
2018-04-13T09:45:26.070Z,17.86
2018-04-13T09:46:26.052Z,18.00
2018-04-13T09:47:26.036Z,18.02
2018-04-13T09:48:26.020Z,17.93
2018-04-13T09:49:26.004Z,17.88
2018-04-13T09:50:25.990Z,17.94
2018-04-13T09:51:25.974Z,17.91
2018-04-13T09:52:25.957Z,18.02
2018-04-13T09:53:25.944Z,18.09
2018-04-13T09:54:25.928Z,18.08
2018-04-13T09:55:25.909Z,18.15
2018-04-13T09:56:25.897Z,18.19
2018-04-13T09:57:25.880Z,18.34
2018-04-13T09:58:25.868Z,18.39
2018-04-13T09:59:25.847Z,18.34
2018-04-13T10:00:25.836Z,18.45
2018-04-13T10:01:25.819Z,18.46
2018-04-13T10:02:25.802Z,18.48
2018-04-13T10:03:25.787Z,18.58
2018-04-13T10:04:25.772Z,18.58
2018-04-13T10:05:25.758Z,18.70
2018-04-13T10:06:25.745Z,18.78
2018-04-13T10:07:25.730Z,18.81
2018-04-13T10:08:25.711Z,18.92
2018-04-13T10:09:25.696Z,19.04
2018-04-13T10:10:25.683Z,18.98
2018-04-13T10:11:25.666Z,19.04
2018-04-13T10:12:25.652Z,19.04
2018-04-13T10:13:25.644Z,18.88
2018-04-13T10:14:25.625Z,18.82
2018-04-13T10:15:25.606Z,18.74
2018-04-13T10:16:25.592Z,18.74
2018-04-13T10:17:25.577Z,18.76
2018-04-13T10:18:25.561Z,18.74
2018-04-13T10:19:25.564Z,18.68
2018-04-13T10:20:25.541Z,18.63
2018-04-13T10:21:25.516Z,18.58
2018-04-13T10:22:25.505Z,18.63
2018-04-13T10:23:25.488Z,18.58
2018-04-13T10:24:25.477Z,18.58
2018-04-13T10:25:25.510Z,18.60
2018-04-13T10:26:25.471Z,18.57
2018-04-13T10:27:25.435Z,18.49
2018-04-13T10:28:25.422Z,18.45
2018-04-13T10:29:25.424Z,18.45
2018-04-13T10:30:25.390Z,18.34
2018-04-13T10:31:25.442Z,18.37
2018-04-13T10:32:25.354Z,18.34
2018-04-13T10:33:25.336Z,18.27
2018-04-13T10:34:25.320Z,18.15
2018-04-13T10:35:25.306Z,18.23
2018-04-13T10:36:25.295Z,18.18
2018-04-13T10:37:25.278Z,18.24
2018-04-13T10:38:25.270Z,18.19
2018-04-13T10:39:25.248Z,18.09
2018-04-13T10:40:25.255Z,18.06
2018-04-13T10:41:25.224Z,18.08
2018-04-13T10:42:25.199Z,18.00
2018-04-13T10:43:25.192Z,18.09
2018-04-13T10:44:25.167Z,18.06
2018-04-13T10:45:25.153Z,18.09
2018-04-13T10:46:25.137Z,18.12
2018-04-13T10:47:25.124Z,18.24
2018-04-13T10:48:25.106Z,18.23
2018-04-13T10:49:25.118Z,18.28
2018-04-13T10:50:25.079Z,18.24
2018-04-13T10:51:25.059Z,18.27
2018-04-13T10:52:25.048Z,18.27
2018-04-13T10:53:25.030Z,18.28
2018-04-13T10:54:25.015Z,18.31
2018-04-13T10:55:25.006Z,18.26
2018-04-13T10:56:24.982Z,18.27
2018-04-13T10:57:24.968Z,18.31
2018-04-13T10:58:24.950Z,18.33
2018-04-13T10:59:24.939Z,18.18
2018-04-13T11:00:24.921Z,18.30
2018-04-13T11:01:24.905Z,18.34
2018-04-13T11:02:24.889Z,18.39
2018-04-13T11:03:24.900Z,18.39
2018-04-13T11:04:24.870Z,18.43
2018-04-13T11:05:24.841Z,18.43
2018-04-13T11:06:24.829Z,18.34
2018-04-13T11:07:24.814Z,18.39
2018-04-13T11:08:24.799Z,18.41
2018-04-13T11:09:24.784Z,18.31
2018-04-13T11:10:24.770Z,18.36
2018-04-13T11:11:24.750Z,18.48
2018-04-13T11:12:24.736Z,18.42
2018-04-13T11:13:24.722Z,18.46
2018-04-13T11:14:24.704Z,18.45
2018-04-13T11:15:24.689Z,18.49
2018-04-13T11:16:24.674Z,18.53
2018-04-13T11:17:24.660Z,18.46
2018-04-13T11:18:24.642Z,18.58
2018-04-13T11:19:24.634Z,18.52
2018-04-13T11:20:24.615Z,18.58
2018-04-13T11:21:24.597Z,18.46
2018-04-13T11:22:24.582Z,18.45
2018-04-13T11:23:24.566Z,18.37
2018-04-13T11:24:24.552Z,18.37
2018-04-13T11:25:24.536Z,18.39
2018-04-13T11:26:24.523Z,18.45
2018-04-13T11:27:24.504Z,18.42
2018-04-13T11:28:24.489Z,18.36
2018-04-13T11:29:24.474Z,18.36
2018-04-13T11:30:24.459Z,18.33
2018-04-13T11:31:24.443Z,18.27
2018-04-13T11:32:24.435Z,18.24
2018-04-13T11:33:24.413Z,18.28
2018-04-13T11:34:24.396Z,18.18
2018-04-13T11:35:24.405Z,18.15
2018-04-13T11:36:24.373Z,18.18
2018-04-13T11:37:24.349Z,18.12
2018-04-13T11:38:24.335Z,18.12
2018-04-13T11:39:24.318Z,18.16
2018-04-13T11:40:24.342Z,18.05
2018-04-13T11:41:24.289Z,18.08
2018-04-13T11:42:24.274Z,18.02
2018-04-13T11:43:24.256Z,17.88
2018-04-13T11:44:24.240Z,17.98
2018-04-13T11:45:24.225Z,18.03
2018-04-13T11:46:24.209Z,18.00
2018-04-13T11:47:24.194Z,17.95
2018-04-13T11:48:24.188Z,17.90
2018-04-13T11:49:24.193Z,18.00
2018-04-13T11:50:24.146Z,17.95
2018-04-13T11:51:24.166Z,18.03
2018-04-13T11:52:24.407Z,17.90
2018-04-13T11:53:24.098Z,17.93
2018-04-13T11:54:24.089Z,17.90
2018-04-13T11:55:24.068Z,17.87
2018-04-13T11:56:24.053Z,17.90
2018-04-13T11:57:24.038Z,17.86
2018-04-13T11:58:24.021Z,17.78
2018-04-13T11:59:24.004Z,17.72
2018-04-13T12:00:23.989Z,17.66
2018-04-13T12:01:23.974Z,17.68
2018-04-13T12:02:24.034Z,17.63
2018-04-13T12:03:23.943Z,17.69
2018-04-13T12:04:23.925Z,17.56
2018-04-13T12:05:23.908Z,17.47
2018-04-13T12:06:23.893Z,17.57
2018-04-13T12:07:23.877Z,17.47
2018-04-13T12:08:23.863Z,17.49
2018-04-13T12:09:23.869Z,17.41
2018-04-13T12:10:23.898Z,17.41
2018-04-13T12:11:23.811Z,17.53
2018-04-13T12:12:23.797Z,17.39
2018-04-13T12:13:23.837Z,17.37
2018-04-13T12:14:23.767Z,17.34
2018-04-13T12:15:23.753Z,17.35
2018-04-13T12:16:23.732Z,17.32
2018-04-13T12:17:23.717Z,17.39
2018-04-13T12:18:23.712Z,17.38
2018-04-13T12:19:23.687Z,17.46
2018-04-13T12:20:23.709Z,17.38
2018-04-13T12:21:24.606Z,17.32
2018-04-13T12:22:23.704Z,17.35
2018-04-13T12:23:23.633Z,17.24
2018-04-13T12:24:23.628Z,17.14
2018-04-13T12:25:23.640Z,17.19
2018-04-13T12:26:23.763Z,17.10
2018-04-13T12:27:23.553Z,17.14
2018-04-13T12:28:23.667Z,17.12
2018-04-13T12:29:23.574Z,17.13
2018-04-13T12:30:23.510Z,17.10
2018-04-13T12:31:23.507Z,16.95
2018-04-13T12:32:23.539Z,16.95
2018-04-13T12:33:23.454Z,16.82
2018-04-13T12:34:23.454Z,16.83
2018-04-13T12:35:23.482Z,16.82
2018-04-13T12:36:23.417Z,16.74
2018-04-13T12:37:23.469Z,16.76
2018-04-13T12:38:23.424Z,16.83
2018-04-13T12:39:23.357Z,16.76
2018-04-13T12:40:23.472Z,16.80
2018-04-13T12:41:23.322Z,16.77
2018-04-13T12:42:23.352Z,16.72
2018-04-13T12:43:23.386Z,16.76
2018-04-13T12:44:23.276Z,16.74
2018-04-13T12:45:23.302Z,16.73
2018-04-13T12:46:23.290Z,16.69
2018-04-13T12:47:23.231Z,16.72
2018-04-13T12:48:23.204Z,16.69
2018-04-13T12:49:23.186Z,16.77
2018-04-13T12:50:24.143Z,16.74
2018-04-13T12:51:23.154Z,16.66
2018-04-13T12:52:23.186Z,16.66